RYR58KV LEZL-GCRR
Flight info
| Callsign | RYR58KV |
|---|---|
| Flight time | 1h 44m |
| Altitude | 39000 |
| Route | CLANA N857 KORNO UN857 TERTO |
| Aircraft | B38M/M-SADE3FGILRWY/SB1 |
Departure
| Time | 2026-04-26 17:13 |
|---|---|
| Airport | Seville Airport (LEZL) |
Arrival
| Time | 2026-04-26 18:57 |
|---|---|
| Airport | César Manrique-Lanzarote Airport (GCRR) |
| Time | Latitude | Longitude | Altitude | Speed | Heading |
|---|---|---|---|---|---|
| 2026-04-26 16:49 | 37.42214 | -5.89948 | 96 ft | 0 kts | 315° |
| 2026-04-26 17:06 | 37.42212 | -5.89945 | 96 ft | 3 kts | 315° |
| 2026-04-26 17:07 | 37.42194 | -5.89920 | 96 ft | 4 kts | 303° |
| 2026-04-26 17:07 | 37.42182 | -5.89890 | 96 ft | 4 kts | 283° |
| 2026-04-26 17:07 | 37.42184 | -5.89860 | 96 ft | 4 kts | 234° |
| 2026-04-26 17:07 | 37.42187 | -5.89855 | 98 ft | 1 kts | 224° |
| 2026-04-26 17:10 | 37.42184 | -5.89858 | 96 ft | 2 kts | 224° |
| 2026-04-26 17:10 | 37.42160 | -5.89887 | 98 ft | 8 kts | 224° |
| 2026-04-26 17:10 | 37.42099 | -5.89960 | 96 ft | 15 kts | 224° |
| 2026-04-26 17:10 | 37.42052 | -5.90064 | 96 ft | 10 kts | 262° |
| 2026-04-26 17:11 | 37.42002 | -5.90094 | 99 ft | 8 kts | 187° |
| 2026-04-26 17:11 | 37.41979 | -5.90154 | 98 ft | 10 kts | 264° |
| 2026-04-26 17:11 | 37.41978 | -5.90260 | 97 ft | 13 kts | 262° |
| 2026-04-26 17:11 | 37.41905 | -5.90303 | 98 ft | 14 kts | 179° |
| 2026-04-26 17:12 | 37.41790 | -5.90180 | 99 ft | 22 kts | 90° |
| 2026-04-26 17:12 | 37.41791 | -5.89671 | 100 ft | 94 kts | 90° |
| 2026-04-26 17:13 | 37.41789 | -5.87201 | 615 ft | 163 kts | 91° |
| 2026-04-26 17:13 | 37.41767 | -5.85728 | 1293 ft | 167 kts | 92° |
| 2026-04-26 17:13 | 37.41608 | -5.82654 | 2382 ft | 195 kts | 106° |
| 2026-04-26 17:14 | 37.40808 | -5.81207 | 2694 ft | 221 kts | 147° |
| 2026-04-26 17:14 | 37.37992 | -5.81532 | 4313 ft | 223 kts | 226° |
| 2026-04-26 17:14 | 37.36989 | -5.83082 | 5000 ft | 231 kts | 228° |
| 2026-04-26 17:15 | 37.34740 | -5.86032 | 6602 ft | 237 kts | 225° |
| 2026-04-26 17:15 | 37.33779 | -5.87284 | 7216 ft | 241 kts | 223° |
| 2026-04-26 17:16 | 37.33269 | -5.87869 | 7421 ft | 248 kts | 219° |
| 2026-04-26 17:16 | 37.31866 | -5.89288 | 7872 ft | 267 kts | 218° |
| 2026-04-26 17:16 | 37.30368 | -5.90815 | 8310 ft | 286 kts | 218° |
| 2026-04-26 17:16 | 37.28799 | -5.92431 | 8961 ft | 293 kts | 218° |
| 2026-04-26 17:17 | 37.27239 | -5.94048 | 9788 ft | 297 kts | 219° |
| 2026-04-26 17:17 | 37.25613 | -5.95739 | 10403 ft | 307 kts | 219° |
| 2026-04-26 17:17 | 37.23937 | -5.97484 | 10794 ft | 324 kts | 219° |
| 2026-04-26 17:17 | 37.22151 | -5.99346 | 11363 ft | 334 kts | 219° |
| 2026-04-26 17:18 | 37.20364 | -6.01207 | 12180 ft | 337 kts | 219° |
| 2026-04-26 17:18 | 37.18553 | -6.03092 | 12960 ft | 341 kts | 219° |
| 2026-04-26 17:18 | 37.16732 | -6.04988 | 13767 ft | 345 kts | 219° |
| 2026-04-26 17:18 | 37.14867 | -6.06928 | 14509 ft | 349 kts | 219° |
| 2026-04-26 17:19 | 37.11077 | -6.10865 | 15978 ft | 357 kts | 219° |
| 2026-04-26 17:19 | 37.09170 | -6.12845 | 16688 ft | 361 kts | 219° |
| 2026-04-26 17:19 | 37.07221 | -6.14866 | 17405 ft | 365 kts | 219° |
| 2026-04-26 17:20 | 37.05248 | -6.16912 | 18101 ft | 370 kts | 219° |
| 2026-04-26 17:20 | 37.04576 | -6.17607 | 18330 ft | 371 kts | 219° |
| 2026-04-26 17:20 | 37.01250 | -6.21050 | 19320 ft | 377 kts | 219° |
| 2026-04-26 17:20 | 36.99223 | -6.23146 | 19930 ft | 379 kts | 220° |
| 2026-04-26 17:21 | 36.97177 | -6.25261 | 20516 ft | 383 kts | 220° |
| 2026-04-26 17:21 | 36.95128 | -6.27377 | 21095 ft | 386 kts | 220° |
| 2026-04-26 17:21 | 36.93040 | -6.29533 | 21667 ft | 389 kts | 220° |
| 2026-04-26 17:21 | 36.90937 | -6.31701 | 22237 ft | 392 kts | 220° |
| 2026-04-26 17:22 | 36.88823 | -6.33879 | 22789 ft | 395 kts | 220° |
| 2026-04-26 17:22 | 36.86691 | -6.36074 | 23341 ft | 399 kts | 220° |
| 2026-04-26 17:22 | 36.84569 | -6.38259 | 23822 ft | 402 kts | 220° |
| 2026-04-26 17:22 | 36.82408 | -6.40480 | 24279 ft | 404 kts | 220° |
| 2026-04-26 17:23 | 36.80230 | -6.42718 | 24733 ft | 407 kts | 220° |
| 2026-04-26 17:23 | 36.78030 | -6.44976 | 25176 ft | 409 kts | 220° |
| 2026-04-26 17:23 | 36.75820 | -6.47244 | 25612 ft | 412 kts | 220° |
| 2026-04-26 17:23 | 36.73592 | -6.49528 | 26045 ft | 414 kts | 221° |
| 2026-04-26 17:24 | 36.71386 | -6.51787 | 26463 ft | 417 kts | 221° |
| 2026-04-26 17:24 | 36.69140 | -6.54086 | 26882 ft | 419 kts | 221° |
| 2026-04-26 17:24 | 36.66873 | -6.56404 | 27291 ft | 422 kts | 221° |
| 2026-04-26 17:24 | 36.64590 | -6.58737 | 27692 ft | 424 kts | 221° |
| 2026-04-26 17:25 | 36.62314 | -6.61060 | 28091 ft | 427 kts | 221° |
| 2026-04-26 17:25 | 36.60013 | -6.63408 | 28470 ft | 429 kts | 221° |
| 2026-04-26 17:25 | 36.57690 | -6.65776 | 28843 ft | 432 kts | 221° |
| 2026-04-26 17:25 | 36.55359 | -6.68151 | 29234 ft | 434 kts | 221° |
| 2026-04-26 17:26 | 36.52993 | -6.70558 | 29610 ft | 437 kts | 222° |
| 2026-04-26 17:26 | 36.50662 | -6.72942 | 29957 ft | 439 kts | 222° |
| 2026-04-26 17:26 | 36.48313 | -6.75373 | 30269 ft | 442 kts | 222° |
| 2026-04-26 17:26 | 36.45950 | -6.77811 | 30598 ft | 443 kts | 223° |
| 2026-04-26 17:27 | 36.43558 | -6.80276 | 30911 ft | 445 kts | 223° |
| 2026-04-26 17:27 | 36.41186 | -6.82718 | 31207 ft | 447 kts | 223° |
| 2026-04-26 17:27 | 36.38774 | -6.85198 | 31512 ft | 449 kts | 223° |
| 2026-04-26 17:27 | 36.36357 | -6.87683 | 31835 ft | 450 kts | 223° |
| 2026-04-26 17:28 | 36.33953 | -6.90152 | 32134 ft | 452 kts | 223° |
| 2026-04-26 17:28 | 36.31543 | -6.92625 | 32434 ft | 453 kts | 223° |
| 2026-04-26 17:28 | 36.29103 | -6.95126 | 32741 ft | 455 kts | 223° |
| 2026-04-26 17:28 | 36.26660 | -6.97629 | 33046 ft | 456 kts | 223° |
| 2026-04-26 17:29 | 36.24204 | -7.00142 | 33352 ft | 457 kts | 223° |
| 2026-04-26 17:29 | 36.23375 | -7.00991 | 33478 ft | 457 kts | 223° |
| 2026-04-26 17:29 | 36.19329 | -7.05126 | 34159 ft | 454 kts | 222° |
| 2026-04-26 17:29 | 36.16895 | -7.07610 | 34525 ft | 452 kts | 222° |
| 2026-04-26 17:30 | 36.14469 | -7.10085 | 34877 ft | 451 kts | 222° |
| 2026-04-26 17:30 | 36.12037 | -7.12564 | 35217 ft | 450 kts | 222° |
| 2026-04-26 17:30 | 36.09644 | -7.15001 | 35549 ft | 448 kts | 222° |
| 2026-04-26 17:30 | 36.07240 | -7.17448 | 35873 ft | 447 kts | 222° |
| 2026-04-26 17:31 | 36.04831 | -7.19897 | 36195 ft | 445 kts | 222° |
| 2026-04-26 17:31 | 36.02441 | -7.22325 | 36492 ft | 444 kts | 222° |
| 2026-04-26 17:31 | 36.00079 | -7.24722 | 36780 ft | 443 kts | 222° |
| 2026-04-26 17:31 | 35.97701 | -7.27135 | 37061 ft | 442 kts | 222° |
| 2026-04-26 17:32 | 35.95325 | -7.29542 | 37346 ft | 441 kts | 222° |
| 2026-04-26 17:32 | 35.92946 | -7.31952 | 37619 ft | 439 kts | 222° |
| 2026-04-26 17:32 | 35.90604 | -7.34321 | 37888 ft | 438 kts | 222° |
| 2026-04-26 17:32 | 35.88242 | -7.36710 | 38144 ft | 437 kts | 222° |
| 2026-04-26 17:33 | 35.85918 | -7.39059 | 38387 ft | 436 kts | 222° |
| 2026-04-26 17:33 | 35.83575 | -7.41419 | 38623 ft | 435 kts | 222° |
| 2026-04-26 17:33 | 35.81222 | -7.43768 | 38798 ft | 434 kts | 221° |
| 2026-04-26 17:34 | 35.77316 | -7.47670 | 38976 ft | 434 kts | 221° |
| 2026-04-26 17:34 | 35.71872 | -7.53101 | 38966 ft | 431 kts | 221° |
| 2026-04-26 17:35 | 35.67987 | -7.56972 | 38969 ft | 431 kts | 221° |
| 2026-04-26 17:35 | 35.63321 | -7.61613 | 38960 ft | 431 kts | 221° |
| 2026-04-26 17:36 | 35.58664 | -7.66239 | 38967 ft | 431 kts | 221° |
| 2026-04-26 17:36 | 35.54000 | -7.70863 | 38964 ft | 431 kts | 221° |
| 2026-04-26 17:37 | 35.49343 | -7.75474 | 38960 ft | 430 kts | 221° |
| 2026-04-26 17:37 | 35.44674 | -7.80090 | 38965 ft | 430 kts | 221° |
| 2026-04-26 17:38 | 35.37728 | -7.87016 | 38961 ft | 430 kts | 221° |
| 2026-04-26 17:38 | 35.33096 | -7.91646 | 38952 ft | 430 kts | 221° |
| 2026-04-26 17:39 | 35.28478 | -7.96255 | 38965 ft | 429 kts | 221° |
| 2026-04-26 17:39 | 35.23822 | -8.00894 | 38961 ft | 429 kts | 221° |
| 2026-04-26 17:40 | 35.19983 | -8.04714 | 38961 ft | 429 kts | 221° |
| 2026-04-26 17:40 | 35.14572 | -8.10089 | 38954 ft | 429 kts | 221° |
| 2026-04-26 17:41 | 35.09971 | -8.14653 | 38964 ft | 429 kts | 221° |
| 2026-04-26 17:41 | 35.05327 | -8.19251 | 38955 ft | 429 kts | 221° |
| 2026-04-26 17:42 | 35.00693 | -8.23835 | 38946 ft | 429 kts | 220° |
| 2026-04-26 17:42 | 34.96063 | -8.28406 | 38956 ft | 429 kts | 220° |
| 2026-04-26 17:43 | 34.91444 | -8.32961 | 38958 ft | 428 kts | 220° |
| 2026-04-26 17:43 | 34.86793 | -8.37539 | 38953 ft | 428 kts | 220° |
| 2026-04-26 17:44 | 34.82171 | -8.42083 | 38942 ft | 428 kts | 220° |
| 2026-04-26 17:44 | 34.77538 | -8.46630 | 38950 ft | 428 kts | 220° |
| 2026-04-26 17:45 | 34.72871 | -8.51203 | 38951 ft | 428 kts | 220° |
| 2026-04-26 17:45 | 34.68261 | -8.55715 | 38952 ft | 428 kts | 220° |
| 2026-04-26 17:46 | 34.63606 | -8.60264 | 38949 ft | 428 kts | 220° |
| 2026-04-26 17:46 | 34.58965 | -8.64792 | 38946 ft | 428 kts | 220° |
| 2026-04-26 17:47 | 34.55100 | -8.68558 | 38950 ft | 428 kts | 220° |
| 2026-04-26 17:47 | 34.49706 | -8.73807 | 38949 ft | 427 kts | 220° |
| 2026-04-26 17:48 | 34.45053 | -8.78327 | 38949 ft | 427 kts | 219° |
| 2026-04-26 17:48 | 34.40414 | -8.82790 | 38944 ft | 427 kts | 219° |
| 2026-04-26 17:49 | 34.35760 | -8.87264 | 38948 ft | 427 kts | 219° |
| 2026-04-26 17:49 | 34.31120 | -8.91721 | 38944 ft | 427 kts | 219° |
| 2026-04-26 17:50 | 34.26471 | -8.96179 | 38944 ft | 427 kts | 219° |
| 2026-04-26 17:50 | 34.21798 | -9.00653 | 38944 ft | 426 kts | 219° |
| 2026-04-26 17:51 | 34.17172 | -9.05077 | 38940 ft | 426 kts | 219° |
| 2026-04-26 17:51 | 34.12525 | -9.09513 | 38944 ft | 426 kts | 219° |
| 2026-04-26 17:52 | 34.07877 | -9.13945 | 38944 ft | 426 kts | 219° |
| 2026-04-26 17:52 | 34.03217 | -9.18381 | 38942 ft | 426 kts | 219° |
| 2026-04-26 17:53 | 33.98555 | -9.22812 | 38942 ft | 426 kts | 219° |
| 2026-04-26 17:54 | 33.91582 | -9.29430 | 38941 ft | 426 kts | 219° |
| 2026-04-26 17:54 | 33.86936 | -9.33830 | 38942 ft | 426 kts | 219° |
| 2026-04-26 17:55 | 33.82280 | -9.38234 | 38941 ft | 426 kts | 219° |
| 2026-04-26 17:55 | 33.77638 | -9.42619 | 38937 ft | 426 kts | 219° |
| 2026-04-26 17:56 | 33.72973 | -9.47019 | 38939 ft | 425 kts | 219° |
| 2026-04-26 17:57 | 33.63666 | -9.55779 | 38939 ft | 426 kts | 219° |
| 2026-04-26 17:57 | 33.58992 | -9.60169 | 38932 ft | 426 kts | 219° |
| 2026-04-26 17:58 | 33.49676 | -9.68899 | 38938 ft | 426 kts | 219° |
| 2026-04-26 17:59 | 33.42769 | -9.75358 | 38938 ft | 426 kts | 218° |
| 2026-04-26 17:59 | 33.38082 | -9.79732 | 38938 ft | 426 kts | 218° |
| 2026-04-26 18:00 | 33.33409 | -9.84088 | 38938 ft | 426 kts | 218° |
| 2026-04-26 18:00 | 33.28741 | -9.88431 | 38938 ft | 425 kts | 218° |
| 2026-04-26 18:01 | 33.24095 | -9.92749 | 38938 ft | 425 kts | 218° |
| 2026-04-26 18:01 | 33.19412 | -9.97096 | 38936 ft | 425 kts | 218° |
| 2026-04-26 18:02 | 33.15516 | -10.00708 | 38934 ft | 425 kts | 218° |
| 2026-04-26 18:02 | 33.10062 | -10.05757 | 38937 ft | 425 kts | 218° |
| 2026-04-26 18:03 | 33.05372 | -10.10094 | 38938 ft | 425 kts | 218° |
| 2026-04-26 18:03 | 33.00711 | -10.14391 | 38940 ft | 425 kts | 218° |
| 2026-04-26 18:04 | 32.96020 | -10.18707 | 38937 ft | 425 kts | 218° |
| 2026-04-26 18:05 | 32.89021 | -10.25138 | 38935 ft | 425 kts | 218° |
| 2026-04-26 18:05 | 32.84322 | -10.29448 | 38935 ft | 425 kts | 218° |
| 2026-04-26 18:06 | 32.79626 | -10.33749 | 38933 ft | 425 kts | 218° |
| 2026-04-26 18:06 | 32.74953 | -10.38024 | 38936 ft | 425 kts | 218° |
| 2026-04-26 18:07 | 32.70262 | -10.42309 | 38932 ft | 425 kts | 218° |
| 2026-04-26 18:07 | 32.65597 | -10.46565 | 38936 ft | 425 kts | 218° |
| 2026-04-26 18:08 | 32.60919 | -10.50826 | 38934 ft | 424 kts | 218° |
| 2026-04-26 18:08 | 32.56236 | -10.55086 | 38932 ft | 424 kts | 218° |
| 2026-04-26 18:09 | 32.51558 | -10.59337 | 38934 ft | 424 kts | 218° |
| 2026-04-26 18:09 | 32.46860 | -10.63599 | 38932 ft | 423 kts | 218° |
| 2026-04-26 18:10 | 32.42201 | -10.67821 | 38934 ft | 423 kts | 218° |
| 2026-04-26 18:10 | 32.37535 | -10.72043 | 38932 ft | 423 kts | 218° |
| 2026-04-26 18:11 | 32.32857 | -10.76270 | 38928 ft | 423 kts | 218° |
| 2026-04-26 18:11 | 32.28192 | -10.80481 | 38934 ft | 423 kts | 218° |
| 2026-04-26 18:12 | 32.23500 | -10.84710 | 38933 ft | 423 kts | 218° |
| 2026-04-26 18:12 | 32.18814 | -10.88928 | 38934 ft | 423 kts | 218° |
| 2026-04-26 18:13 | 32.14151 | -10.93119 | 38928 ft | 422 kts | 218° |
| 2026-04-26 18:13 | 32.09484 | -10.97309 | 38933 ft | 422 kts | 218° |
| 2026-04-26 18:14 | 32.04806 | -11.01503 | 38933 ft | 422 kts | 218° |
| 2026-04-26 18:14 | 32.00157 | -11.05665 | 38931 ft | 422 kts | 218° |
| 2026-04-26 18:15 | 31.95468 | -11.09858 | 38931 ft | 422 kts | 218° |
| 2026-04-26 18:15 | 31.90799 | -11.14028 | 38933 ft | 422 kts | 218° |
| 2026-04-26 18:16 | 31.86112 | -11.18208 | 38935 ft | 422 kts | 218° |
| 2026-04-26 18:16 | 31.79107 | -11.24447 | 38932 ft | 422 kts | 218° |
| 2026-04-26 18:17 | 31.74452 | -11.28593 | 38934 ft | 422 kts | 218° |
| 2026-04-26 18:17 | 31.69764 | -11.32775 | 38931 ft | 421 kts | 218° |
| 2026-04-26 18:18 | 31.65089 | -11.36941 | 38933 ft | 421 kts | 218° |
| 2026-04-26 18:18 | 31.60451 | -11.41069 | 38934 ft | 421 kts | 218° |
| 2026-04-26 18:19 | 31.55758 | -11.45239 | 38932 ft | 421 kts | 218° |
| 2026-04-26 18:19 | 31.51104 | -11.49370 | 38937 ft | 421 kts | 218° |
| 2026-04-26 18:20 | 31.46423 | -11.53520 | 38939 ft | 420 kts | 218° |
| 2026-04-26 18:20 | 31.43313 | -11.56274 | 38939 ft | 420 kts | 218° |
| 2026-04-26 18:21 | 31.37118 | -11.61753 | 38937 ft | 420 kts | 218° |
| 2026-04-26 18:21 | 31.32452 | -11.65873 | 38939 ft | 419 kts | 218° |
| 2026-04-26 18:22 | 31.27808 | -11.69969 | 38939 ft | 419 kts | 218° |
| 2026-04-26 18:22 | 31.23168 | -11.74057 | 38944 ft | 418 kts | 218° |
| 2026-04-26 18:23 | 31.18526 | -11.78140 | 38943 ft | 418 kts | 218° |
| 2026-04-26 18:23 | 31.13875 | -11.82226 | 38941 ft | 417 kts | 218° |
| 2026-04-26 18:24 | 31.09250 | -11.86285 | 38942 ft | 417 kts | 218° |
| 2026-04-26 18:24 | 31.05373 | -11.89684 | 38942 ft | 417 kts | 218° |
| 2026-04-26 18:25 | 31.00725 | -11.93753 | 38947 ft | 417 kts | 218° |
| 2026-04-26 18:25 | 30.96112 | -11.97787 | 38945 ft | 416 kts | 218° |
| 2026-04-26 18:26 | 30.90720 | -12.02495 | 38946 ft | 416 kts | 218° |
| 2026-04-26 18:26 | 30.86856 | -12.05865 | 38947 ft | 416 kts | 218° |
| 2026-04-26 18:27 | 30.82220 | -12.09904 | 38951 ft | 416 kts | 218° |
| 2026-04-26 18:27 | 30.77600 | -12.13924 | 38950 ft | 415 kts | 218° |
| 2026-04-26 18:28 | 30.72969 | -12.17949 | 38952 ft | 415 kts | 217° |
| 2026-04-26 18:28 | 30.68337 | -12.21969 | 38955 ft | 415 kts | 217° |
| 2026-04-26 18:29 | 30.63712 | -12.25978 | 38953 ft | 415 kts | 217° |
| 2026-04-26 18:29 | 30.59081 | -12.29989 | 38954 ft | 415 kts | 217° |
| 2026-04-26 18:30 | 30.54482 | -12.33968 | 38957 ft | 415 kts | 217° |
| 2026-04-26 18:30 | 30.52162 | -12.35973 | 38805 ft | 412 kts | 217° |
| 2026-04-26 18:30 | 30.49859 | -12.37955 | 38123 ft | 411 kts | 217° |
| 2026-04-26 18:31 | 30.47572 | -12.39921 | 37604 ft | 407 kts | 217° |
| 2026-04-26 18:31 | 30.45327 | -12.41851 | 37085 ft | 404 kts | 217° |
| 2026-04-26 18:31 | 30.43051 | -12.43806 | 36392 ft | 404 kts | 217° |
| 2026-04-26 18:31 | 30.40796 | -12.45743 | 35650 ft | 410 kts | 217° |
| 2026-04-26 18:32 | 30.38464 | -12.47744 | 34976 ft | 414 kts | 217° |
| 2026-04-26 18:32 | 30.36168 | -12.49715 | 34465 ft | 417 kts | 217° |
| 2026-04-26 18:32 | 30.33795 | -12.51711 | 33964 ft | 420 kts | 214° |
| 2026-04-26 18:32 | 30.31243 | -12.53307 | 33541 ft | 422 kts | 204° |
| 2026-04-26 18:33 | 30.28572 | -12.54721 | 33299 ft | 418 kts | 206° |
| 2026-04-26 18:33 | 30.25962 | -12.56162 | 33113 ft | 417 kts | 206° |
| 2026-04-26 18:33 | 30.23350 | -12.57618 | 32936 ft | 416 kts | 206° |
| 2026-04-26 18:33 | 30.20773 | -12.59061 | 32749 ft | 415 kts | 206° |
| 2026-04-26 18:34 | 30.18169 | -12.60521 | 32502 ft | 413 kts | 206° |
| 2026-04-26 18:34 | 30.15605 | -12.61958 | 32013 ft | 410 kts | 206° |
| 2026-04-26 18:34 | 30.13044 | -12.63393 | 31447 ft | 408 kts | 206° |
| 2026-04-26 18:34 | 30.10474 | -12.64832 | 30923 ft | 405 kts | 206° |
| 2026-04-26 18:35 | 30.07977 | -12.66230 | 30427 ft | 402 kts | 206° |
| 2026-04-26 18:35 | 30.05457 | -12.67640 | 29919 ft | 400 kts | 206° |
| 2026-04-26 18:35 | 30.02958 | -12.69037 | 29352 ft | 397 kts | 206° |
| 2026-04-26 18:35 | 30.00480 | -12.70422 | 28852 ft | 393 kts | 206° |
| 2026-04-26 18:36 | 29.98020 | -12.71795 | 28381 ft | 390 kts | 206° |
| 2026-04-26 18:36 | 29.95623 | -12.73133 | 27917 ft | 386 kts | 206° |
| 2026-04-26 18:36 | 29.93210 | -12.74479 | 27456 ft | 383 kts | 206° |
| 2026-04-26 18:36 | 29.90813 | -12.75815 | 27002 ft | 379 kts | 206° |
| 2026-04-26 18:37 | 29.88444 | -12.77136 | 26563 ft | 377 kts | 206° |
| 2026-04-26 18:37 | 29.86095 | -12.78443 | 26520 ft | 374 kts | 206° |
| 2026-04-26 18:37 | 29.83761 | -12.79743 | 25535 ft | 377 kts | 205° |
| 2026-04-26 18:37 | 29.81419 | -12.81047 | 25175 ft | 373 kts | 205° |
| 2026-04-26 18:38 | 29.79091 | -12.82340 | 24816 ft | 368 kts | 205° |
| 2026-04-26 18:38 | 29.76794 | -12.83617 | 24425 ft | 366 kts | 205° |
| 2026-04-26 18:38 | 29.74509 | -12.84887 | 24014 ft | 364 kts | 205° |
| 2026-04-26 18:38 | 29.72225 | -12.86155 | 23612 ft | 362 kts | 205° |
| 2026-04-26 18:39 | 29.69971 | -12.87407 | 23152 ft | 361 kts | 205° |
| 2026-04-26 18:39 | 29.67726 | -12.88652 | 22740 ft | 358 kts | 205° |
| 2026-04-26 18:39 | 29.65484 | -12.89894 | 22339 ft | 355 kts | 205° |
| 2026-04-26 18:39 | 29.63273 | -12.91120 | 21962 ft | 351 kts | 205° |
| 2026-04-26 18:40 | 29.61080 | -12.92335 | 21589 ft | 348 kts | 205° |
| 2026-04-26 18:40 | 29.58933 | -12.93523 | 21229 ft | 345 kts | 205° |
| 2026-04-26 18:40 | 29.56757 | -12.94726 | 20859 ft | 341 kts | 205° |
| 2026-04-26 18:40 | 29.54644 | -12.95895 | 20505 ft | 339 kts | 205° |
| 2026-04-26 18:41 | 29.52516 | -12.97072 | 20150 ft | 336 kts | 205° |
| 2026-04-26 18:41 | 29.50423 | -12.98228 | 19798 ft | 334 kts | 205° |
| 2026-04-26 18:41 | 29.48349 | -12.99374 | 19444 ft | 332 kts | 205° |
| 2026-04-26 18:41 | 29.46278 | -13.00518 | 19092 ft | 334 kts | 205° |
| 2026-04-26 18:42 | 29.44152 | -13.01691 | 18727 ft | 338 kts | 205° |
| 2026-04-26 18:42 | 29.42047 | -13.02852 | 18384 ft | 339 kts | 205° |
| 2026-04-26 18:42 | 29.39898 | -13.04037 | 17986 ft | 338 kts | 205° |
| 2026-04-26 18:42 | 29.37800 | -13.05193 | 17607 ft | 337 kts | 206° |
| 2026-04-26 18:43 | 29.35701 | -13.06349 | 17248 ft | 333 kts | 206° |
| 2026-04-26 18:43 | 29.33609 | -13.07500 | 16894 ft | 330 kts | 206° |
| 2026-04-26 18:43 | 29.31596 | -13.08783 | 16264 ft | 335 kts | 217° |
| 2026-04-26 18:43 | 29.29737 | -13.10409 | 15583 ft | 342 kts | 216° |
| 2026-04-26 18:44 | 29.27793 | -13.12012 | 14887 ft | 349 kts | 216° |
| 2026-04-26 18:44 | 29.25798 | -13.13662 | 14197 ft | 356 kts | 216° |
| 2026-04-26 18:44 | 29.23776 | -13.15339 | 13614 ft | 359 kts | 216° |
| 2026-04-26 18:44 | 29.21759 | -13.17009 | 13142 ft | 357 kts | 216° |
| 2026-04-26 18:45 | 29.19757 | -13.18669 | 12759 ft | 352 kts | 216° |
| 2026-04-26 18:45 | 29.17785 | -13.20302 | 12386 ft | 348 kts | 216° |
| 2026-04-26 18:45 | 29.15941 | -13.21830 | 12030 ft | 345 kts | 216° |
| 2026-04-26 18:45 | 29.14001 | -13.23435 | 11635 ft | 341 kts | 216° |
| 2026-04-26 18:46 | 29.12084 | -13.25022 | 11258 ft | 338 kts | 216° |
| 2026-04-26 18:46 | 29.10186 | -13.26591 | 10882 ft | 335 kts | 216° |
| 2026-04-26 18:46 | 29.08322 | -13.28131 | 10542 ft | 332 kts | 215° |
| 2026-04-26 18:46 | 29.06472 | -13.29660 | 10376 ft | 322 kts | 215° |
| 2026-04-26 18:47 | 29.04685 | -13.31137 | 10227 ft | 313 kts | 215° |
| 2026-04-26 18:47 | 29.03053 | -13.32484 | 10087 ft | 305 kts | 215° |
| 2026-04-26 18:47 | 29.01356 | -13.33884 | 9816 ft | 301 kts | 215° |
| 2026-04-26 18:47 | 28.99660 | -13.35284 | 9448 ft | 300 kts | 215° |
| 2026-04-26 18:48 | 28.97973 | -13.36675 | 9110 ft | 298 kts | 216° |
| 2026-04-26 18:48 | 28.96291 | -13.38061 | 8771 ft | 296 kts | 216° |
| 2026-04-26 18:48 | 28.94620 | -13.39437 | 8452 ft | 295 kts | 216° |
| 2026-04-26 18:48 | 28.92987 | -13.40782 | 8133 ft | 293 kts | 216° |
| 2026-04-26 18:49 | 28.91333 | -13.42143 | 7817 ft | 292 kts | 216° |
| 2026-04-26 18:49 | 28.89691 | -13.43494 | 7501 ft | 290 kts | 216° |
| 2026-04-26 18:49 | 28.88038 | -13.44853 | 7181 ft | 289 kts | 216° |
| 2026-04-26 18:49 | 28.86423 | -13.46180 | 6863 ft | 289 kts | 217° |
| 2026-04-26 18:50 | 28.84785 | -13.47526 | 6537 ft | 288 kts | 217° |
| 2026-04-26 18:50 | 28.83178 | -13.48846 | 6212 ft | 288 kts | 217° |
| 2026-04-26 18:50 | 28.81544 | -13.50187 | 5848 ft | 289 kts | 217° |
| 2026-04-26 18:50 | 28.79916 | -13.51524 | 5455 ft | 291 kts | 217° |
| 2026-04-26 18:51 | 28.78260 | -13.52882 | 5051 ft | 292 kts | 217° |
| 2026-04-26 18:51 | 28.76615 | -13.54231 | 4674 ft | 294 kts | 218° |
| 2026-04-26 18:51 | 28.74948 | -13.55615 | 4268 ft | 295 kts | 221° |
| 2026-04-26 18:51 | 28.73715 | -13.57428 | 3828 ft | 289 kts | 252° |
| 2026-04-26 18:52 | 28.73441 | -13.59618 | 3478 ft | 279 kts | 281° |
| 2026-04-26 18:52 | 28.73722 | -13.61041 | 3259 ft | 274 kts | 291° |
| 2026-04-26 18:52 | 28.74431 | -13.63777 | 2930 ft | 267 kts | 291° |
| 2026-04-26 18:52 | 28.74960 | -13.65794 | 2695 ft | 263 kts | 292° |
| 2026-04-26 18:53 | 28.75870 | -13.67523 | 2427 ft | 252 kts | 321° |
| 2026-04-26 18:53 | 28.77318 | -13.68616 | 2202 ft | 245 kts | 336° |
| 2026-04-26 18:53 | 28.78930 | -13.69015 | 2053 ft | 236 kts | 2° |
| 2026-04-26 18:53 | 28.80477 | -13.68629 | 2042 ft | 223 kts | 20° |
| 2026-04-26 18:54 | 28.81834 | -13.67915 | 2066 ft | 204 kts | 25° |
| 2026-04-26 18:54 | 28.83025 | -13.67216 | 2061 ft | 184 kts | 25° |
| 2026-04-26 18:54 | 28.84135 | -13.66568 | 2045 ft | 178 kts | 24° |
| 2026-04-26 18:54 | 28.85233 | -13.65932 | 1868 ft | 175 kts | 24° |
| 2026-04-26 18:55 | 28.86312 | -13.65304 | 1643 ft | 169 kts | 24° |
| 2026-04-26 18:55 | 28.87281 | -13.64739 | 1442 ft | 147 kts | 23° |
| 2026-04-26 18:55 | 28.88132 | -13.64244 | 1270 ft | 131 kts | 22° |
| 2026-04-26 18:55 | 28.88940 | -13.63781 | 1088 ft | 130 kts | 24° |
| 2026-04-26 18:56 | 28.89748 | -13.63310 | 922 ft | 133 kts | 23° |
| 2026-04-26 18:56 | 28.90577 | -13.62827 | 748 ft | 134 kts | 22° |
| 2026-04-26 18:56 | 28.91418 | -13.62338 | 572 ft | 134 kts | 22° |
| 2026-04-26 18:56 | 28.92240 | -13.61857 | 366 ft | 134 kts | 21° |
| 2026-04-26 18:57 | 28.93072 | -13.61380 | 231 ft | 136 kts | 23° |
| 2026-04-26 18:57 | 28.93636 | -13.61044 | 97 ft | 136 kts | 24° |
| 2026-04-26 18:57 | 28.94675 | -13.60454 | 41 ft | 102 kts | 26° |
| 2026-04-26 18:57 | 28.95112 | -13.60217 | 49 ft | 27 kts | 14° |
| 2026-04-26 18:58 | 28.95260 | -13.60211 | 52 ft | 19 kts | 359° |
| 2026-04-26 18:58 | 28.95327 | -13.60266 | 52 ft | 9 kts | 262° |
| 2026-04-26 18:58 | 28.95292 | -13.60299 | 52 ft | 7 kts | 205° |
| 2026-04-26 18:58 | 28.95229 | -13.60335 | 52 ft | 13 kts | 207° |
| 2026-04-26 18:59 | 28.95137 | -13.60389 | 52 ft | 16 kts | 207° |
| 2026-04-26 18:59 | 28.95032 | -13.60450 | 53 ft | 14 kts | 208° |
| 2026-04-26 18:59 | 28.95026 | -13.60516 | 47 ft | 8 kts | 300° |
| 2026-04-26 18:59 | 28.95031 | -13.60529 | 50 ft | 1 kts | 293° |
| 2026-04-26 19:00 | 28.95034 | -13.60536 | 51 ft | 0 kts | 293° |